sensor_id;sensor_type;location;lat;lon;timestamp;P1;durP1;ratioP1;P2;durP2;ratioP2
651;SDS011;310;48.490;9.200;2022-11-23T00:01:37;1.70;;;1.10;;
651;SDS011;310;48.490;9.200;2022-11-23T00:04:04;1.80;;;1.10;;
651;SDS011;310;48.490;9.200;2022-11-23T00:06:31;5.03;;;2.00;;
651;SDS011;310;48.490;9.200;2022-11-23T00:08:57;1.70;;;1.10;;
651;SDS011;310;48.490;9.200;2022-11-23T00:11:23;1.80;;;1.10;;
651;SDS011;310;48.490;9.200;2022-11-23T00:13:50;1.80;;;1.10;;
651;SDS011;310;48.490;9.200;2022-11-23T00:16:17;1.80;;;1.15;;
651;SDS011;310;48.490;9.200;2022-11-23T00:18:47;1.83;;;1.10;;
651;SDS011;310;48.490;9.200;2022-11-23T00:21:16;1.77;;;1.10;;
651;SDS011;310;48.490;9.200;2022-11-23T00:23:42;1.70;;;1.00;;
651;SDS011;310;48.490;9.200;2022-11-23T00:26:09;1.88;;;1.17;;
651;SDS011;310;48.490;9.200;2022-11-23T00:28:35;1.90;;;1.20;;
651;SDS011;310;48.490;9.200;2022-11-23T00:31:04;1.70;;;1.08;;
651;SDS011;310;48.490;9.200;2022-11-23T00:33:30;1.70;;;1.05;;
651;SDS011;310;48.490;9.200;2022-11-23T00:36:00;1.70;;;1.10;;
651;SDS011;310;48.490;9.200;2022-11-23T00:38:30;1.70;;;1.10;;
651;SDS011;310;48.490;9.200;2022-11-23T00:40:57;2.20;;;1.37;;
651;SDS011;310;48.490;9.200;2022-11-23T00:43:27;1.80;;;1.10;;
651;SDS011;310;48.490;9.200;2022-11-23T00:46:11;1.80;;;1.10;;
651;SDS011;310;48.490;9.200;2022-11-23T00:48:40;1.80;;;1.10;;
651;SDS011;310;48.490;9.200;2022-11-23T00:51:10;1.80;;;1.00;;
651;SDS011;310;48.490;9.200;2022-11-23T00:53:38;1.85;;;1.15;;
651;SDS011;310;48.490;9.200;2022-11-23T00:56:05;2.00;;;1.20;;
651;SDS011;310;48.490;9.200;2022-11-23T00:58:31;1.80;;;1.20;;
651;SDS011;310;48.490;9.200;2022-11-23T01:01:04;1.80;;;1.10;;
651;SDS011;310;48.490;9.200;2022-11-23T01:03:37;1.80;;;1.10;;
651;SDS011;310;48.490;9.200;2022-11-23T01:06:11;2.92;;;1.48;;
651;SDS011;310;48.490;9.200;2022-11-23T01:08:39;1.80;;;1.10;;
651;SDS011;310;48.490;9.200;2022-11-23T01:11:06;1.90;;;1.20;;
651;SDS011;310;48.490;9.200;2022-11-23T01:13:37;1.90;;;1.20;;
651;SDS011;310;48.490;9.200;2022-11-23T01:16:06;1.80;;;1.10;;
651;SDS011;310;48.490;9.200;2022-11-23T01:18:56;1.90;;;1.10;;
651;SDS011;310;48.490;9.200;2022-11-23T01:21:24;1.85;;;1.10;;
651;SDS011;310;48.490;9.200;2022-11-23T01:23:50;1.83;;;1.15;;
651;SDS011;310;48.490;9.200;2022-11-23T01:26:16;1.80;;;1.10;;
651;SDS011;310;48.490;9.200;2022-11-23T01:28:42;1.80;;;1.10;;
651;SDS011;310;48.490;9.200;2022-11-23T01:31:09;1.80;;;1.10;;
651;SDS011;310;48.490;9.200;2022-11-23T01:33:37;1.80;;;1.10;;
651;SDS011;310;48.490;9.200;2022-11-23T01:36:14;1.70;;;1.10;;
651;SDS011;310;48.490;9.200;2022-11-23T01:38:41;1.70;;;1.10;;
651;SDS011;310;48.490;9.200;2022-11-23T01:41:10;1.75;;;1.00;;
651;SDS011;310;48.490;9.200;2022-11-23T01:43:38;1.80;;;1.17;;
651;SDS011;310;48.490;9.200;2022-11-23T01:46:05;1.73;;;1.00;;
651;SDS011;310;48.490;9.200;2022-11-23T01:48:37;1.90;;;1.30;;
651;SDS011;310;48.490;9.200;2022-11-23T01:51:07;1.80;;;1.10;;
651;SDS011;310;48.490;9.200;2022-11-23T01:53:36;1.80;;;1.10;;
651;SDS011;310;48.490;9.200;2022-11-23T01:56:04;1.80;;;1.10;;
651;SDS011;310;48.490;9.200;2022-11-23T01:58:34;1.80;;;1.10;;
651;SDS011;310;48.490;9.200;2022-11-23T02:01:03;1.90;;;1.30;;
651;SDS011;310;48.490;9.200;2022-11-23T02:03:30;1.80;;;1.10;;
651;SDS011;310;48.490;9.200;2022-11-23T02:05:59;1.77;;;1.00;;
651;SDS011;310;48.490;9.200;2022-11-23T02:08:27;1.70;;;1.10;;
651;SDS011;310;48.490;9.200;2022-11-23T02:10:54;2.55;;;1.50;;
651;SDS011;310;48.490;9.200;2022-11-23T02:13:21;1.80;;;1.20;;
651;SDS011;310;48.490;9.200;2022-11-23T02:15:47;1.70;;;1.10;;
651;SDS011;310;48.490;9.200;2022-11-23T02:18:14;1.70;;;1.00;;
651;SDS011;310;48.490;9.200;2022-11-23T02:20:45;1.77;;;1.08;;
651;SDS011;310;48.490;9.200;2022-11-23T02:26:01;1.73;;;1.02;;
651;SDS011;310;48.490;9.200;2022-11-23T02:28:33;1.80;;;1.23;;
651;SDS011;310;48.490;9.200;2022-11-23T02:31:07;1.80;;;1.10;;
651;SDS011;310;48.490;9.200;2022-11-23T02:33:33;1.70;;;1.07;;
651;SDS011;310;48.490;9.200;2022-11-23T02:36:01;1.75;;;1.10;;
651;SDS011;310;48.490;9.200;2022-11-23T02:38:30;3.17;;;1.53;;
651;SDS011;310;48.490;9.200;2022-11-23T02:40:57;1.70;;;1.00;;
651;SDS011;310;48.490;9.200;2022-11-23T02:43:22;1.90;;;1.20;;
651;SDS011;310;48.490;9.200;2022-11-23T02:45:49;1.70;;;1.00;;
651;SDS011;310;48.490;9.200;2022-11-23T02:48:18;2.00;;;1.38;;
651;SDS011;310;48.490;9.200;2022-11-23T02:50:44;1.80;;;1.10;;
651;SDS011;310;48.490;9.200;2022-11-23T02:53:11;1.80;;;1.10;;
651;SDS011;310;48.490;9.200;2022-11-23T02:55:37;1.73;;;1.02;;
651;SDS011;310;48.490;9.200;2022-11-23T02:58:03;1.80;;;1.10;;
651;SDS011;310;48.490;9.200;2022-11-23T03:00:30;1.80;;;1.10;;
651;SDS011;310;48.490;9.200;2022-11-23T03:02:56;1.80;;;1.10;;
651;SDS011;310;48.490;9.200;2022-11-23T03:05:24;2.20;;;1.40;;
651;SDS011;310;48.490;9.200;2022-11-23T03:07:49;2.03;;;1.40;;
651;SDS011;310;48.490;9.200;2022-11-23T03:10:15;1.70;;;1.10;;
651;SDS011;310;48.490;9.200;2022-11-23T03:12:42;1.80;;;1.20;;
651;SDS011;310;48.490;9.200;2022-11-23T03:15:07;2.47;;;1.70;;
651;SDS011;310;48.490;9.200;2022-11-23T03:17:33;1.70;;;1.05;;
651;SDS011;310;48.490;9.200;2022-11-23T03:19:59;1.70;;;1.10;;
651;SDS011;310;48.490;9.200;2022-11-23T03:22:25;3.93;;;1.67;;
651;SDS011;310;48.490;9.200;2022-11-23T03:24:51;1.90;;;1.27;;
651;SDS011;310;48.490;9.200;2022-11-23T03:27:16;1.80;;;1.10;;
651;SDS011;310;48.490;9.200;2022-11-23T03:29:42;1.80;;;1.13;;
651;SDS011;310;48.490;9.200;2022-11-23T03:32:08;1.87;;;1.17;;
651;SDS011;310;48.490;9.200;2022-11-23T03:34:34;1.80;;;1.10;;
651;SDS011;310;48.490;9.200;2022-11-23T03:36:59;1.90;;;1.20;;
651;SDS011;310;48.490;9.200;2022-11-23T03:39:25;2.13;;;1.50;;
651;SDS011;310;48.490;9.200;2022-11-23T03:41:51;1.90;;;1.20;;
651;SDS011;310;48.490;9.200;2022-11-23T03:44:16;1.90;;;1.30;;
651;SDS011;310;48.490;9.200;2022-11-23T03:46:42;1.70;;;1.00;;
651;SDS011;310;48.490;9.200;2022-11-23T03:49:07;1.70;;;1.10;;
651;SDS011;310;48.490;9.200;2022-11-23T03:51:33;1.70;;;1.00;;
651;SDS011;310;48.490;9.200;2022-11-23T03:53:58;1.70;;;1.10;;
651;SDS011;310;48.490;9.200;2022-11-23T03:56:24;2.30;;;1.40;;
651;SDS011;310;48.490;9.200;2022-11-23T03:58:50;2.50;;;1.60;;
651;SDS011;310;48.490;9.200;2022-11-23T04:01:15;1.70;;;1.07;;
651;SDS011;310;48.490;9.200;2022-11-23T04:03:41;1.70;;;1.10;;
651;SDS011;310;48.490;9.200;2022-11-23T04:06:07;1.70;;;1.10;;
651;SDS011;310;48.490;9.200;2022-11-23T04:08:32;1.60;;;1.00;;
651;SDS011;310;48.490;9.200;2022-11-23T04:10:58;1.80;;;1.30;;
651;SDS011;310;48.490;9.200;2022-11-23T04:13:24;1.70;;;1.10;;
651;SDS011;310;48.490;9.200;2022-11-23T04:15:50;1.80;;;1.20;;
651;SDS011;310;48.490;9.200;2022-11-23T04:18:15;1.70;;;1.10;;
651;SDS011;310;48.490;9.200;2022-11-23T04:20:41;1.70;;;1.10;;
651;SDS011;310;48.490;9.200;2022-11-23T04:23:06;1.60;;;1.00;;
651;SDS011;310;48.490;9.200;2022-11-23T04:25:32;1.70;;;1.10;;
651;SDS011;310;48.490;9.200;2022-11-23T04:27:58;1.80;;;1.20;;
651;SDS011;310;48.490;9.200;2022-11-23T04:30:24;1.80;;;1.10;;
651;SDS011;310;48.490;9.200;2022-11-23T04:32:50;1.70;;;1.10;;
651;SDS011;310;48.490;9.200;2022-11-23T04:35:15;1.70;;;1.10;;
651;SDS011;310;48.490;9.200;2022-11-23T04:37:41;1.73;;;1.10;;
651;SDS011;310;48.490;9.200;2022-11-23T04:40:07;1.70;;;1.10;;
651;SDS011;310;48.490;9.200;2022-11-23T04:42:33;1.70;;;1.00;;
651;SDS011;310;48.490;9.200;2022-11-23T04:44:58;1.70;;;1.00;;
651;SDS011;310;48.490;9.200;2022-11-23T04:47:24;1.80;;;1.20;;
651;SDS011;310;48.490;9.200;2022-11-23T04:49:50;1.80;;;1.10;;
651;SDS011;310;48.490;9.200;2022-11-23T04:52:15;1.70;;;1.10;;
651;SDS011;310;48.490;9.200;2022-11-23T04:54:41;1.70;;;1.10;;
651;SDS011;310;48.490;9.200;2022-11-23T04:57:07;1.70;;;1.07;;
651;SDS011;310;48.490;9.200;2022-11-23T04:59:32;1.70;;;1.10;;
651;SDS011;310;48.490;9.200;2022-11-23T05:01:58;1.70;;;1.10;;
651;SDS011;310;48.490;9.200;2022-11-23T05:04:24;1.70;;;1.10;;
651;SDS011;310;48.490;9.200;2022-11-23T05:06:49;1.70;;;1.00;;
651;SDS011;310;48.490;9.200;2022-11-23T05:09:15;1.70;;;1.00;;
651;SDS011;310;48.490;9.200;2022-11-23T05:11:41;1.70;;;1.10;;
651;SDS011;310;48.490;9.200;2022-11-23T05:14:06;1.90;;;1.20;;
651;SDS011;310;48.490;9.200;2022-11-23T05:16:32;1.70;;;1.10;;
651;SDS011;310;48.490;9.200;2022-11-23T05:18:57;1.90;;;1.30;;
651;SDS011;310;48.490;9.200;2022-11-23T05:21:23;1.70;;;1.10;;
651;SDS011;310;48.490;9.200;2022-11-23T05:23:48;1.70;;;1.00;;
651;SDS011;310;48.490;9.200;2022-11-23T05:26:14;1.80;;;1.20;;
651;SDS011;310;48.490;9.200;2022-11-23T05:28:40;2.00;;;1.20;;
651;SDS011;310;48.490;9.200;2022-11-23T05:31:05;2.20;;;1.30;;
651;SDS011;310;48.490;9.200;2022-11-23T05:33:31;1.70;;;1.10;;
651;SDS011;310;48.490;9.200;2022-11-23T05:35:57;1.70;;;1.00;;
651;SDS011;310;48.490;9.200;2022-11-23T05:38:22;2.47;;;1.50;;
651;SDS011;310;48.490;9.200;2022-11-23T05:40:48;1.70;;;1.00;;
651;SDS011;310;48.490;9.200;2022-11-23T05:43:13;1.70;;;1.10;;
651;SDS011;310;48.490;9.200;2022-11-23T05:45:39;2.17;;;1.40;;
651;SDS011;310;48.490;9.200;2022-11-23T05:48:05;1.70;;;1.10;;
651;SDS011;310;48.490;9.200;2022-11-23T05:50:30;1.70;;;1.10;;
651;SDS011;310;48.490;9.200;2022-11-23T05:52:56;1.70;;;1.10;;
651;SDS011;310;48.490;9.200;2022-11-23T05:55:22;1.70;;;1.10;;
651;SDS011;310;48.490;9.200;2022-11-23T05:57:48;1.98;;;1.45;;
651;SDS011;310;48.490;9.200;2022-11-23T06:00:14;1.70;;;1.17;;
651;SDS011;310;48.490;9.200;2022-11-23T06:02:40;1.70;;;1.10;;
651;SDS011;310;48.490;9.200;2022-11-23T06:05:06;1.80;;;1.20;;
651;SDS011;310;48.490;9.200;2022-11-23T06:07:32;1.70;;;1.10;;
651;SDS011;310;48.490;9.200;2022-11-23T06:09:58;1.70;;;1.20;;
651;SDS011;310;48.490;9.200;2022-11-23T06:12:24;3.20;;;2.23;;
651;SDS011;310;48.490;9.200;2022-11-23T06:14:49;1.77;;;1.20;;
651;SDS011;310;48.490;9.200;2022-11-23T06:17:15;1.80;;;1.20;;
651;SDS011;310;48.490;9.200;2022-11-23T06:19:41;1.80;;;1.20;;
651;SDS011;310;48.490;9.200;2022-11-23T06:22:06;1.70;;;1.10;;
651;SDS011;310;48.490;9.200;2022-11-23T06:24:32;1.98;;;1.35;;
651;SDS011;310;48.490;9.200;2022-11-23T06:26:58;2.57;;;1.63;;
651;SDS011;310;48.490;9.200;2022-11-23T06:29:24;1.70;;;1.10;;
651;SDS011;310;48.490;9.200;2022-11-23T06:31:49;1.87;;;1.27;;
651;SDS011;310;48.490;9.200;2022-11-23T06:34:15;1.83;;;1.20;;
651;SDS011;310;48.490;9.200;2022-11-23T06:36:40;1.70;;;1.10;;
651;SDS011;310;48.490;9.200;2022-11-23T06:39:07;1.70;;;1.10;;
651;SDS011;310;48.490;9.200;2022-11-23T06:41:33;1.80;;;1.25;;
651;SDS011;310;48.490;9.200;2022-11-23T06:43:58;1.87;;;1.27;;
651;SDS011;310;48.490;9.200;2022-11-23T06:46:24;1.70;;;1.10;;
651;SDS011;310;48.490;9.200;2022-11-23T06:48:50;2.40;;;1.30;;
651;SDS011;310;48.490;9.200;2022-11-23T06:51:15;2.37;;;1.67;;
651;SDS011;310;48.490;9.200;2022-11-23T06:53:41;1.73;;;1.17;;
651;SDS011;310;48.490;9.200;2022-11-23T06:56:07;1.93;;;1.37;;
651;SDS011;310;48.490;9.200;2022-11-23T06:58:33;1.80;;;1.20;;
651;SDS011;310;48.490;9.200;2022-11-23T07:00:59;1.70;;;1.20;;
651;SDS011;310;48.490;9.200;2022-11-23T07:03:26;1.70;;;1.10;;
651;SDS011;310;48.490;9.200;2022-11-23T07:05:52;1.70;;;1.10;;
651;SDS011;310;48.490;9.200;2022-11-23T07:08:17;1.70;;;1.20;;
651;SDS011;310;48.490;9.200;2022-11-23T07:10:43;2.07;;;1.47;;
651;SDS011;310;48.490;9.200;2022-11-23T07:13:09;3.00;;;2.15;;
651;SDS011;310;48.490;9.200;2022-11-23T07:15:36;2.10;;;1.48;;
651;SDS011;310;48.490;9.200;2022-11-23T07:18:02;1.70;;;1.10;;
651;SDS011;310;48.490;9.200;2022-11-23T07:20:29;1.70;;;1.20;;
651;SDS011;310;48.490;9.200;2022-11-23T07:23:12;3.33;;;2.20;;
651;SDS011;310;48.490;9.200;2022-11-23T07:25:38;2.70;;;2.10;;
651;SDS011;310;48.490;9.200;2022-11-23T07:28:04;3.13;;;1.93;;
651;SDS011;310;48.490;9.200;2022-11-23T07:30:31;4.18;;;1.95;;
651;SDS011;310;48.490;9.200;2022-11-23T07:33:02;1.90;;;1.38;;
651;SDS011;310;48.490;9.200;2022-11-23T07:35:35;1.75;;;1.17;;
651;SDS011;310;48.490;9.200;2022-11-23T07:38:01;1.90;;;1.27;;
651;SDS011;310;48.490;9.200;2022-11-23T07:40:28;1.90;;;1.30;;
651;SDS011;310;48.490;9.200;2022-11-23T07:43:00;2.20;;;1.60;;
651;SDS011;310;48.490;9.200;2022-11-23T07:45:27;2.28;;;1.50;;
651;SDS011;310;48.490;9.200;2022-11-23T07:47:57;2.90;;;1.63;;
651;SDS011;310;48.490;9.200;2022-11-23T07:50:27;1.70;;;1.10;;
651;SDS011;310;48.490;9.200;2022-11-23T07:52:52;1.80;;;1.20;;
651;SDS011;310;48.490;9.200;2022-11-23T07:55:18;2.03;;;1.50;;
651;SDS011;310;48.490;9.200;2022-11-23T07:57:44;1.80;;;1.20;;
651;SDS011;310;48.490;9.200;2022-11-23T08:00:10;1.70;;;1.10;;
651;SDS011;310;48.490;9.200;2022-11-23T08:02:36;1.70;;;1.10;;
651;SDS011;310;48.490;9.200;2022-11-23T08:05:02;2.20;;;1.50;;
651;SDS011;310;48.490;9.200;2022-11-23T08:07:28;2.47;;;1.43;;
651;SDS011;310;48.490;9.200;2022-11-23T08:09:53;1.77;;;1.17;;
651;SDS011;310;48.490;9.200;2022-11-23T08:12:19;2.60;;;1.70;;
651;SDS011;310;48.490;9.200;2022-11-23T08:14:45;1.70;;;1.10;;
651;SDS011;310;48.490;9.200;2022-11-23T08:17:11;2.93;;;1.60;;
651;SDS011;310;48.490;9.200;2022-11-23T08:19:36;1.70;;;1.00;;
651;SDS011;310;48.490;9.200;2022-11-23T08:22:02;1.70;;;1.10;;
651;SDS011;310;48.490;9.200;2022-11-23T08:24:27;1.80;;;1.10;;
651;SDS011;310;48.490;9.200;2022-11-23T08:26:53;2.37;;;1.20;;
651;SDS011;310;48.490;9.200;2022-11-23T08:29:19;1.90;;;1.30;;
651;SDS011;310;48.490;9.200;2022-11-23T08:31:45;1.70;;;1.10;;
651;SDS011;310;48.490;9.200;2022-11-23T08:34:10;2.67;;;1.40;;
651;SDS011;310;48.490;9.200;2022-11-23T08:36:37;2.42;;;1.77;;
651;SDS011;310;48.490;9.200;2022-11-23T08:39:03;1.90;;;1.10;;
651;SDS011;310;48.490;9.200;2022-11-23T08:41:29;1.80;;;1.17;;
651;SDS011;310;48.490;9.200;2022-11-23T08:43:54;1.97;;;1.27;;
651;SDS011;310;48.490;9.200;2022-11-23T08:46:20;2.00;;;1.30;;
651;SDS011;310;48.490;9.200;2022-11-23T08:48:45;1.80;;;1.10;;
651;SDS011;310;48.490;9.200;2022-11-23T08:51:11;2.27;;;1.53;;
651;SDS011;310;48.490;9.200;2022-11-23T08:53:37;2.17;;;1.30;;
651;SDS011;310;48.490;9.200;2022-11-23T08:56:03;1.90;;;1.20;;
651;SDS011;310;48.490;9.200;2022-11-23T08:58:30;2.00;;;1.30;;
651;SDS011;310;48.490;9.200;2022-11-23T09:00:56;1.80;;;1.10;;
651;SDS011;310;48.490;9.200;2022-11-23T09:03:22;1.80;;;1.10;;
651;SDS011;310;48.490;9.200;2022-11-23T09:05:47;4.13;;;1.60;;
651;SDS011;310;48.490;9.200;2022-11-23T09:08:15;1.90;;;1.23;;
651;SDS011;310;48.490;9.200;2022-11-23T09:10:41;2.30;;;1.50;;
651;SDS011;310;48.490;9.200;2022-11-23T09:13:06;1.80;;;1.10;;
651;SDS011;310;48.490;9.200;2022-11-23T09:15:32;2.27;;;1.20;;
651;SDS011;310;48.490;9.200;2022-11-23T09:17:58;1.80;;;1.10;;
651;SDS011;310;48.490;9.200;2022-11-23T09:20:24;1.80;;;1.00;;
651;SDS011;310;48.490;9.200;2022-11-23T09:22:50;1.80;;;1.20;;
651;SDS011;310;48.490;9.200;2022-11-23T09:25:17;2.65;;;1.30;;
651;SDS011;310;48.490;9.200;2022-11-23T09:27:43;1.80;;;1.10;;
651;SDS011;310;48.490;9.200;2022-11-23T09:30:09;2.08;;;1.40;;
651;SDS011;310;48.490;9.200;2022-11-23T09:32:35;1.80;;;1.13;;
651;SDS011;310;48.490;9.200;2022-11-23T09:35:01;1.90;;;1.20;;
651;SDS011;310;48.490;9.200;2022-11-23T09:37:26;1.77;;;1.10;;
651;SDS011;310;48.490;9.200;2022-11-23T09:39:52;1.70;;;1.10;;
651;SDS011;310;48.490;9.200;2022-11-23T09:42:29;1.70;;;1.10;;
651;SDS011;310;48.490;9.200;2022-11-23T09:50:22;1.80;;;1.20;;
651;SDS011;310;48.490;9.200;2022-11-23T09:53:08;2.60;;;1.30;;
651;SDS011;310;48.490;9.200;2022-11-23T09:58:14;1.70;;;1.10;;
651;SDS011;310;48.490;9.200;2022-11-23T10:00:49;2.08;;;1.35;;
651;SDS011;310;48.490;9.200;2022-11-23T10:03:29;1.70;;;1.08;;
651;SDS011;310;48.490;9.200;2022-11-23T10:06:04;1.70;;;1.10;;
651;SDS011;310;48.490;9.200;2022-11-23T10:15:23;1.80;;;1.20;;
651;SDS011;310;48.490;9.200;2022-11-23T10:18:04;1.80;;;1.20;;
651;SDS011;310;48.490;9.200;2022-11-23T10:26:20;1.70;;;1.10;;
651;SDS011;310;48.490;9.200;2022-11-23T10:28:55;1.70;;;1.10;;
651;SDS011;310;48.490;9.200;2022-11-23T10:31:26;2.00;;;1.42;;
651;SDS011;310;48.490;9.200;2022-11-23T10:34:00;1.80;;;1.20;;
651;SDS011;310;48.490;9.200;2022-11-23T10:36:36;1.80;;;1.20;;
651;SDS011;310;48.490;9.200;2022-11-23T10:39:08;1.80;;;1.20;;
651;SDS011;310;48.490;9.200;2022-11-23T10:41:53;1.90;;;1.30;;
651;SDS011;310;48.490;9.200;2022-11-23T10:44:30;1.73;;;1.10;;
651;SDS011;310;48.490;9.200;2022-11-23T10:46:58;1.85;;;1.23;;
651;SDS011;310;48.490;9.200;2022-11-23T10:49:28;1.80;;;1.20;;
651;SDS011;310;48.490;9.200;2022-11-23T10:54:26;1.73;;;1.10;;
651;SDS011;310;48.490;9.200;2022-11-23T10:56:55;1.73;;;1.10;;
651;SDS011;310;48.490;9.200;2022-11-23T10:59:37;1.70;;;1.10;;
651;SDS011;310;48.490;9.200;2022-11-23T11:04:46;1.80;;;1.15;;
651;SDS011;310;48.490;9.200;2022-11-23T11:07:23;2.00;;;1.40;;
651;SDS011;310;48.490;9.200;2022-11-23T11:09:56;1.80;;;1.10;;
651;SDS011;310;48.490;9.200;2022-11-23T11:12:25;1.80;;;1.08;;
651;SDS011;310;48.490;9.200;2022-11-23T11:14:56;1.92;;;1.30;;
651;SDS011;310;48.490;9.200;2022-11-23T11:17:32;2.20;;;1.23;;
651;SDS011;310;48.490;9.200;2022-11-23T11:19:59;2.10;;;1.20;;
651;SDS011;310;48.490;9.200;2022-11-23T11:22:33;1.98;;;1.10;;
651;SDS011;310;48.490;9.200;2022-11-23T11:25:03;1.98;;;1.13;;
651;SDS011;310;48.490;9.200;2022-11-23T11:27:30;2.05;;;1.15;;
651;SDS011;310;48.490;9.200;2022-11-23T11:29:58;2.13;;;1.08;;
651;SDS011;310;48.490;9.200;2022-11-23T11:37:35;2.40;;;1.20;;
651;SDS011;310;48.490;9.200;2022-11-23T11:40:25;2.50;;;1.30;;
651;SDS011;310;48.490;9.200;2022-11-23T11:45:57;2.90;;;1.40;;
651;SDS011;310;48.490;9.200;2022-11-23T11:48:31;2.87;;;1.20;;
651;SDS011;310;48.490;9.200;2022-11-23T11:51:16;2.93;;;1.30;;
651;SDS011;310;48.490;9.200;2022-11-23T11:53:58;2.90;;;1.20;;
651;SDS011;310;48.490;9.200;2022-11-23T11:56:43;2.97;;;1.10;;
651;SDS011;310;48.490;9.200;2022-11-23T12:04:40;2.90;;;1.00;;
651;SDS011;310;48.490;9.200;2022-11-23T12:07:16;3.00;;;1.20;;
651;SDS011;310;48.490;9.200;2022-11-23T12:09:49;2.97;;;1.10;;
651;SDS011;310;48.490;9.200;2022-11-23T12:12:19;3.60;;;1.60;;
651;SDS011;310;48.490;9.200;2022-11-23T12:14:46;3.00;;;1.20;;
651;SDS011;310;48.490;9.200;2022-11-23T12:19:59;3.07;;;1.30;;
651;SDS011;310;48.490;9.200;2022-11-23T12:25:19;3.10;;;1.30;;
651;SDS011;310;48.490;9.200;2022-11-23T12:50:16;3.00;;;1.20;;
651;SDS011;310;48.490;9.200;2022-11-23T12:58:18;4.70;;;1.57;;
651;SDS011;310;48.490;9.200;2022-11-23T13:06:24;3.10;;;1.20;;
651;SDS011;310;48.490;9.200;2022-11-23T13:20:27;3.13;;;1.37;;
651;SDS011;310;48.490;9.200;2022-11-23T13:22:57;2.97;;;1.20;;
651;SDS011;310;48.490;9.200;2022-11-23T13:30:26;2.90;;;1.20;;
651;SDS011;310;48.490;9.200;2022-11-23T13:40:43;2.90;;;1.20;;
651;SDS011;310;48.490;9.200;2022-11-23T13:48:52;3.00;;;1.20;;
651;SDS011;310;48.490;9.200;2022-11-23T13:51:23;3.20;;;1.27;;
651;SDS011;310;48.490;9.200;2022-11-23T13:53:53;3.30;;;1.30;;
651;SDS011;310;48.490;9.200;2022-11-23T13:56:40;3.43;;;1.30;;
651;SDS011;310;48.490;9.200;2022-11-23T14:02:01;3.80;;;1.37;;
651;SDS011;310;48.490;9.200;2022-11-23T14:04:30;3.60;;;1.20;;
651;SDS011;310;48.490;9.200;2022-11-23T14:09:47;4.00;;;1.43;;
651;SDS011;310;48.490;9.200;2022-11-23T14:12:33;3.57;;;1.20;;
651;SDS011;310;48.490;9.200;2022-11-23T14:26:32;3.10;;;1.23;;
651;SDS011;310;48.490;9.200;2022-11-23T14:34:35;2.97;;;1.07;;
651;SDS011;310;48.490;9.200;2022-11-23T14:37:28;3.10;;;1.10;;
651;SDS011;310;48.490;9.200;2022-11-23T14:43:16;3.27;;;1.27;;
651;SDS011;310;48.490;9.200;2022-11-23T14:45:43;3.40;;;1.30;;
651;SDS011;310;48.490;9.200;2022-11-23T14:48:24;3.60;;;1.40;;
651;SDS011;310;48.490;9.200;2022-11-23T14:50:59;3.10;;;1.10;;
651;SDS011;310;48.490;9.200;2022-11-23T14:53:29;3.10;;;1.10;;
651;SDS011;310;48.490;9.200;2022-11-23T14:56:05;3.20;;;1.17;;
651;SDS011;310;48.490;9.200;2022-11-23T14:58:44;3.17;;;1.20;;
651;SDS011;310;48.490;9.200;2022-11-23T15:01:09;3.40;;;1.40;;
651;SDS011;310;48.490;9.200;2022-11-23T15:03:59;3.20;;;1.10;;
651;SDS011;310;48.490;9.200;2022-11-23T15:06:32;3.20;;;1.10;;
651;SDS011;310;48.490;9.200;2022-11-23T15:14:47;3.13;;;1.13;;
651;SDS011;310;48.490;9.200;2022-11-23T15:17:13;3.17;;;1.20;;
651;SDS011;310;48.490;9.200;2022-11-23T15:19:40;3.15;;;1.15;;
651;SDS011;310;48.490;9.200;2022-11-23T15:22:16;3.70;;;1.20;;
651;SDS011;310;48.490;9.200;2022-11-23T15:24:43;3.10;;;1.10;;
651;SDS011;310;48.490;9.200;2022-11-23T15:27:11;3.20;;;1.27;;
651;SDS011;310;48.490;9.200;2022-11-23T15:29:49;3.10;;;1.10;;
651;SDS011;310;48.490;9.200;2022-11-23T15:32:28;3.10;;;1.10;;
651;SDS011;310;48.490;9.200;2022-11-23T15:34:57;3.08;;;1.10;;
651;SDS011;310;48.490;9.200;2022-11-23T15:37:30;3.10;;;1.17;;
651;SDS011;310;48.490;9.200;2022-11-23T15:39:57;3.10;;;1.10;;
651;SDS011;310;48.490;9.200;2022-11-23T15:42:24;3.00;;;1.10;;
651;SDS011;310;48.490;9.200;2022-11-23T15:44:50;3.13;;;1.20;;
651;SDS011;310;48.490;9.200;2022-11-23T15:47:18;3.07;;;1.07;;
651;SDS011;310;48.490;9.200;2022-11-23T15:49:51;3.05;;;1.10;;
651;SDS011;310;48.490;9.200;2022-11-23T15:52:24;3.08;;;1.08;;
651;SDS011;310;48.490;9.200;2022-11-23T15:54:52;3.17;;;1.20;;
651;SDS011;310;48.490;9.200;2022-11-23T15:57:18;3.10;;;1.20;;
651;SDS011;310;48.490;9.200;2022-11-23T15:59:49;3.13;;;1.10;;
651;SDS011;310;48.490;9.200;2022-11-23T16:02:27;3.10;;;1.10;;
651;SDS011;310;48.490;9.200;2022-11-23T16:05:09;3.35;;;1.40;;
651;SDS011;310;48.490;9.200;2022-11-23T16:07:50;3.20;;;1.27;;
651;SDS011;310;48.490;9.200;2022-11-23T16:10:18;3.05;;;1.10;;
651;SDS011;310;48.490;9.200;2022-11-23T16:12:48;3.20;;;1.20;;
651;SDS011;310;48.490;9.200;2022-11-23T16:20:46;3.20;;;1.30;;
651;SDS011;310;48.490;9.200;2022-11-23T16:23:23;3.10;;;1.20;;
651;SDS011;310;48.490;9.200;2022-11-23T16:25:54;3.03;;;1.10;;
651;SDS011;310;48.490;9.200;2022-11-23T16:28:31;3.20;;;1.30;;
651;SDS011;310;48.490;9.200;2022-11-23T16:30:59;3.10;;;1.20;;
651;SDS011;310;48.490;9.200;2022-11-23T16:33:25;3.13;;;1.20;;
651;SDS011;310;48.490;9.200;2022-11-23T16:35:51;3.30;;;1.30;;
651;SDS011;310;48.490;9.200;2022-11-23T16:38:17;3.20;;;1.20;;
651;SDS011;310;48.490;9.200;2022-11-23T16:40:43;3.20;;;1.20;;
651;SDS011;310;48.490;9.200;2022-11-23T16:43:10;3.30;;;1.30;;
651;SDS011;310;48.490;9.200;2022-11-23T16:45:41;3.13;;;1.13;;
651;SDS011;310;48.490;9.200;2022-11-23T16:50:50;3.05;;;1.10;;
651;SDS011;310;48.490;9.200;2022-11-23T16:53:20;3.07;;;1.17;;
651;SDS011;310;48.490;9.200;2022-11-23T16:55:51;3.30;;;1.30;;
651;SDS011;310;48.490;9.200;2022-11-23T16:58:18;3.20;;;1.20;;
651;SDS011;310;48.490;9.200;2022-11-23T17:00:44;3.00;;;1.00;;
651;SDS011;310;48.490;9.200;2022-11-23T17:03:16;3.10;;;1.20;;
651;SDS011;310;48.490;9.200;2022-11-23T17:05:43;3.20;;;1.30;;
651;SDS011;310;48.490;9.200;2022-11-23T17:08:09;3.00;;;1.10;;
651;SDS011;310;48.490;9.200;2022-11-23T17:10:39;3.20;;;1.20;;
651;SDS011;310;48.490;9.200;2022-11-23T17:13:10;3.00;;;1.20;;
651;SDS011;310;48.490;9.200;2022-11-23T17:15:38;3.10;;;1.30;;
651;SDS011;310;48.490;9.200;2022-11-23T17:18:04;3.00;;;1.20;;
651;SDS011;310;48.490;9.200;2022-11-23T17:20:37;2.90;;;1.10;;
651;SDS011;310;48.490;9.200;2022-11-23T17:23:02;2.90;;;1.10;;
651;SDS011;310;48.490;9.200;2022-11-23T17:25:28;3.00;;;1.20;;
651;SDS011;310;48.490;9.200;2022-11-23T17:27:54;2.90;;;1.30;;
651;SDS011;310;48.490;9.200;2022-11-23T17:30:20;2.87;;;1.20;;
651;SDS011;310;48.490;9.200;2022-11-23T17:32:47;3.00;;;1.40;;
651;SDS011;310;48.490;9.200;2022-11-23T17:35:13;3.08;;;1.33;;
651;SDS011;310;48.490;9.200;2022-11-23T17:37:40;2.80;;;1.40;;
651;SDS011;310;48.490;9.200;2022-11-23T17:40:15;2.70;;;1.20;;
651;SDS011;310;48.490;9.200;2022-11-23T17:42:42;2.60;;;1.10;;
651;SDS011;310;48.490;9.200;2022-11-23T17:45:08;2.50;;;1.10;;
651;SDS011;310;48.490;9.200;2022-11-23T17:47:35;2.70;;;1.30;;
651;SDS011;310;48.490;9.200;2022-11-23T17:50:02;2.70;;;1.30;;
651;SDS011;310;48.490;9.200;2022-11-23T17:52:31;2.60;;;1.20;;
651;SDS011;310;48.490;9.200;2022-11-23T17:54:57;2.50;;;1.23;;
651;SDS011;310;48.490;9.200;2022-11-23T17:57:23;2.37;;;1.10;;
651;SDS011;310;48.490;9.200;2022-11-23T17:59:50;2.40;;;1.30;;
651;SDS011;310;48.490;9.200;2022-11-23T18:02:16;2.30;;;1.10;;
651;SDS011;310;48.490;9.200;2022-11-23T18:04:43;2.35;;;1.20;;
651;SDS011;310;48.490;9.200;2022-11-23T18:07:11;2.23;;;1.20;;
651;SDS011;310;48.490;9.200;2022-11-23T18:09:37;2.30;;;1.30;;
651;SDS011;310;48.490;9.200;2022-11-23T18:12:03;2.30;;;1.20;;
651;SDS011;310;48.490;9.200;2022-11-23T18:14:29;2.30;;;1.20;;
651;SDS011;310;48.490;9.200;2022-11-23T18:16:55;2.30;;;1.27;;
651;SDS011;310;48.490;9.200;2022-11-23T18:19:20;2.50;;;1.30;;
651;SDS011;310;48.490;9.200;2022-11-23T18:21:46;2.10;;;1.10;;
651;SDS011;310;48.490;9.200;2022-11-23T18:24:12;2.10;;;1.10;;